createdAt,value
2018-06-11T00:01:23.634Z,16.97
2018-06-11T00:03:51.715Z,12.93
2018-06-11T00:06:19.783Z,14.80
2018-06-11T00:08:47.833Z,16.07
2018-06-11T00:11:15.919Z,18.93
2018-06-11T00:13:44.031Z,19.57
2018-06-11T00:16:12.170Z,13.40
2018-06-11T00:18:40.285Z,16.80
2018-06-11T00:21:08.466Z,13.00
2018-06-11T00:23:36.541Z,15.27
2018-06-11T00:26:04.720Z,13.10
2018-06-11T00:28:32.775Z,16.60
2018-06-11T00:31:00.842Z,12.90
2018-06-11T00:33:28.942Z,14.10
2018-06-11T00:35:57.010Z,12.20
2018-06-11T00:38:25.111Z,15.13
2018-06-11T00:40:53.195Z,13.93
2018-06-11T00:43:21.299Z,11.53
2018-06-11T00:45:49.399Z,10.43
2018-06-11T00:48:17.531Z,14.87
2018-06-11T00:50:45.583Z,13.67
2018-06-11T00:53:13.642Z,17.67
2018-06-11T00:55:58.567Z,13.20
2018-06-11T00:58:26.655Z,17.37
2018-06-11T01:00:54.713Z,12.37
2018-06-11T01:03:22.850Z,14.90
2018-06-11T01:05:50.930Z,15.30
2018-06-11T01:08:19.016Z,14.80
2018-06-11T01:10:47.087Z,13.87
2018-06-11T01:13:15.209Z,15.67
2018-06-11T01:15:43.360Z,16.10
2018-06-11T01:18:11.397Z,13.97
2018-06-11T01:20:39.497Z,14.30
2018-06-11T01:23:07.601Z,14.37
2018-06-11T01:25:35.672Z,14.77
2018-06-11T01:28:03.825Z,13.17
2018-06-11T01:30:31.925Z,14.93
2018-06-11T01:33:00.003Z,14.87
2018-06-11T01:35:28.981Z,15.80
2018-06-11T01:37:57.038Z,12.90
2018-06-11T01:40:31.985Z,13.87
2018-06-11T01:43:00.057Z,15.63
2018-06-11T01:45:28.126Z,18.63
2018-06-11T01:47:56.180Z,14.03
2018-06-11T01:50:24.307Z,13.97
2018-06-11T01:52:52.395Z,17.90
2018-06-11T01:55:20.481Z,16.17
2018-06-11T01:57:48.527Z,17.60
2018-06-11T02:00:16.632Z,14.07
2018-06-11T02:02:44.762Z,13.97
2018-06-11T02:05:12.868Z,11.37
2018-06-11T02:07:40.938Z,15.67
2018-06-11T02:10:09.371Z,11.90
2018-06-11T02:12:37.468Z,20.23
2018-06-11T02:15:05.627Z,17.07
2018-06-11T02:17:33.698Z,16.70
2018-06-11T02:20:01.771Z,12.77
2018-06-11T02:22:29.857Z,13.10
2018-06-11T02:24:57.927Z,15.53
2018-06-11T02:27:26.084Z,19.40
2018-06-11T02:29:54.170Z,18.27
2018-06-11T02:32:22.323Z,18.43
2018-06-11T02:34:50.415Z,17.67
2018-06-11T02:37:18.511Z,15.47
2018-06-11T02:39:46.562Z,15.10
2018-06-11T02:42:14.658Z,18.30
2018-06-11T02:44:42.712Z,19.17
2018-06-11T02:47:10.812Z,19.73
2018-06-11T02:49:38.863Z,21.80
2018-06-11T02:52:06.933Z,20.80
2018-06-11T02:54:35.075Z,17.93
2018-06-11T02:57:03.175Z,23.10
2018-06-11T02:59:31.273Z,16.30
2018-06-11T03:01:59.354Z,14.90
2018-06-11T03:04:27.453Z,16.77
2018-06-11T03:06:55.632Z,18.27
2018-06-11T03:09:23.731Z,14.43
2018-06-11T03:11:51.831Z,17.80
2018-06-11T03:14:19.879Z,17.03
2018-06-11T03:16:47.933Z,17.00
2018-06-11T03:19:16.029Z,21.70
2018-06-11T03:21:44.096Z,18.13
2018-06-11T03:24:12.187Z,18.27
2018-06-11T03:26:40.260Z,21.50
2018-06-11T03:29:08.315Z,18.13
2018-06-11T03:31:36.387Z,17.77
2018-06-11T03:34:04.451Z,15.33
2018-06-11T03:36:32.584Z,18.20
2018-06-11T03:39:00.667Z,14.60
2018-06-11T03:41:28.767Z,15.63
2018-06-11T03:43:56.812Z,16.87
2018-06-11T03:46:24.926Z,15.80
2018-06-11T03:48:52.985Z,18.50
2018-06-11T03:51:21.103Z,22.10
2018-06-11T03:53:49.219Z,17.30
2018-06-11T03:56:17.367Z,17.73
2018-06-11T03:58:45.472Z,17.90
2018-06-11T04:01:13.572Z,14.47
2018-06-11T04:03:41.659Z,19.07
2018-06-11T04:06:09.744Z,14.50
2018-06-11T04:08:37.838Z,15.67
2018-06-11T04:11:06.034Z,16.17
2018-06-11T04:13:34.072Z,17.30
2018-06-11T04:16:02.201Z,20.43
2018-06-11T04:18:30.347Z,14.27
2018-06-11T04:20:58.439Z,18.23
2018-06-11T04:23:26.507Z,16.77
2018-06-11T04:25:54.628Z,17.40
2018-06-11T04:28:22.700Z,16.93
2018-06-11T04:30:50.765Z,16.60
2018-06-11T04:33:18.865Z,19.53
2018-06-11T04:35:46.944Z,18.67
2018-06-11T04:38:15.044Z,16.87
2018-06-11T04:40:43.171Z,21.70
2018-06-11T04:43:11.251Z,19.10
2018-06-11T04:45:39.420Z,18.13
2018-06-11T04:48:07.478Z,19.87
2018-06-11T04:50:35.600Z,21.23
2018-06-11T04:53:03.717Z,18.20
2018-06-11T04:55:31.868Z,20.33
2018-06-11T04:57:59.987Z,19.47
2018-06-11T05:00:28.097Z,17.20
2018-06-11T05:02:56.204Z,20.43
2018-06-11T05:05:24.423Z,16.37
2018-06-11T05:07:52.523Z,33.17
2018-06-11T05:10:20.600Z,21.83
2018-06-11T05:12:48.699Z,18.43
2018-06-11T05:15:16.823Z,21.40
2018-06-11T05:17:44.893Z,18.07
2018-06-11T05:20:13.092Z,17.83
2018-06-11T05:22:41.143Z,20.77
2018-06-11T05:25:09.259Z,25.50
2018-06-11T05:27:37.360Z,21.47
2018-06-11T05:30:05.528Z,16.80
2018-06-11T05:32:33.598Z,18.33
2018-06-11T05:35:01.639Z,19.07
2018-06-11T05:37:29.768Z,24.67
2018-06-11T05:39:57.927Z,15.70
2018-06-11T05:42:26.021Z,23.90
2018-06-11T05:44:54.100Z,19.60
2018-06-11T05:47:22.244Z,18.00
2018-06-11T05:49:50.385Z,18.50
2018-06-11T05:52:18.563Z,18.77
2018-06-11T05:54:46.676Z,18.70
2018-06-11T05:57:15.400Z,18.20
2018-06-11T05:59:43.559Z,18.77
2018-06-11T06:02:11.718Z,19.00
2018-06-11T06:04:40.841Z,17.17
2018-06-11T06:07:08.938Z,18.63
2018-06-11T06:09:37.120Z,21.23
2018-06-11T06:12:05.239Z,13.90
2018-06-11T06:14:33.400Z,14.77
2018-06-11T06:17:01.467Z,16.00
2018-06-11T06:19:29.597Z,15.83
2018-06-11T06:21:57.652Z,16.27
2018-06-11T06:24:25.818Z,15.03
2018-06-11T06:26:53.944Z,12.53
2018-06-11T06:29:22.083Z,15.80
2018-06-11T06:31:50.227Z,18.57
2018-06-11T06:34:18.417Z,18.50
2018-06-11T06:36:46.507Z,20.60
2018-06-11T06:39:14.627Z,19.90
2018-06-11T06:41:42.729Z,16.13
2018-06-11T06:44:10.883Z,20.50
2018-06-11T06:46:39.016Z,18.10
2018-06-11T06:49:07.098Z,16.07
2018-06-11T06:51:35.214Z,16.67
2018-06-11T06:54:03.393Z,16.27
2018-06-11T06:56:31.566Z,13.80
2018-06-11T06:58:59.687Z,18.83
2018-06-11T07:01:27.835Z,17.40
2018-06-11T07:03:55.930Z,17.67
2018-06-11T07:06:24.104Z,14.37
2018-06-11T07:08:52.297Z,18.73
2018-06-11T07:11:20.432Z,19.10
2018-06-11T07:13:48.588Z,15.23
2018-06-11T07:16:16.580Z,14.43
2018-06-11T07:18:44.715Z,15.27
2018-06-11T07:21:12.823Z,17.60
2018-06-11T07:23:40.923Z,16.50
2018-06-11T07:26:09.046Z,15.77
2018-06-11T07:28:37.063Z,14.80
2018-06-11T07:31:05.186Z,15.77
2018-06-11T07:33:33.248Z,15.20
2018-06-11T07:36:01.383Z,17.07
2018-06-11T07:38:29.507Z,24.93
2018-06-11T07:40:57.587Z,13.27
2018-06-11T07:43:25.747Z,16.30
2018-06-11T07:45:53.776Z,12.90
2018-06-11T07:48:21.909Z,16.70
2018-06-11T07:50:50.042Z,19.10
2018-06-11T07:53:18.151Z,16.67
2018-06-11T07:55:46.235Z,18.30
2018-06-11T07:58:14.308Z,16.00
2018-06-11T08:00:42.429Z,21.20
2018-06-11T08:03:10.552Z,14.93
2018-06-11T08:05:38.739Z,17.70
2018-06-11T08:08:06.830Z,18.10
2018-06-11T08:10:34.922Z,18.93
2018-06-11T08:13:03.023Z,17.00
2018-06-11T08:15:31.148Z,18.20
2018-06-11T08:17:59.290Z,20.30
2018-06-11T08:20:27.464Z,21.87
2018-06-11T08:22:55.606Z,15.83
2018-06-11T08:25:23.752Z,14.47
2018-06-11T08:27:51.891Z,16.70
2018-06-11T08:30:20.003Z,20.50
2018-06-11T08:32:48.128Z,19.30
2018-06-11T08:35:16.265Z,25.63
2018-06-11T08:37:44.433Z,18.57
2018-06-11T08:40:12.589Z,15.27
2018-06-11T08:42:40.784Z,19.17
2018-06-11T08:45:08.950Z,15.37
2018-06-11T08:47:37.061Z,16.53
2018-06-11T08:50:05.264Z,16.03
2018-06-11T08:52:33.337Z,20.00
2018-06-11T08:55:01.455Z,28.50
2018-06-11T08:57:29.575Z,21.20
2018-06-11T08:59:57.707Z,20.30
2018-06-11T09:02:25.817Z,17.90
2018-06-11T09:04:53.948Z,15.90
2018-06-11T09:07:22.057Z,16.13
2018-06-11T09:09:50.184Z,16.90
2018-06-11T09:12:18.282Z,18.90
2018-06-11T09:14:46.395Z,19.63
2018-06-11T09:17:14.568Z,17.93
2018-06-11T09:19:42.705Z,17.83
2018-06-11T09:22:11.549Z,14.53
2018-06-11T09:24:39.642Z,16.03
2018-06-11T09:27:07.759Z,15.33
2018-06-11T09:29:35.846Z,15.90
2018-06-11T09:32:04.179Z,13.07
2018-06-11T09:34:32.320Z,15.40
2018-06-11T09:37:00.584Z,15.37
2018-06-11T09:39:28.649Z,16.90
2018-06-11T09:41:56.804Z,15.03
2018-06-11T09:44:24.999Z,18.20
2018-06-11T09:46:53.153Z,18.20
2018-06-11T09:49:21.242Z,11.67
2018-06-11T09:51:49.330Z,15.13
2018-06-11T09:54:17.463Z,12.77
2018-06-11T09:56:45.577Z,13.23
2018-06-11T09:59:13.716Z,13.93
2018-06-11T10:01:41.804Z,16.77
2018-06-11T10:04:09.959Z,15.73
2018-06-11T10:06:38.072Z,14.80
2018-06-11T10:09:08.193Z,13.97
2018-06-11T10:11:36.313Z,18.90
2018-06-11T10:14:04.887Z,13.33
2018-06-11T10:16:33.040Z,14.10
2018-06-11T10:19:01.438Z,13.53
2018-06-11T10:21:29.539Z,15.53
2018-06-11T10:23:57.662Z,15.53
2018-06-11T10:26:25.792Z,12.67
2018-06-11T10:28:53.887Z,15.00
2018-06-11T10:31:22.092Z,11.97
2018-06-11T10:33:50.327Z,13.93
2018-06-11T10:36:18.580Z,15.87
2018-06-11T10:38:46.700Z,16.03
2018-06-11T10:41:14.836Z,18.90
2018-06-11T10:43:42.922Z,12.47
2018-06-11T10:46:11.540Z,12.87
2018-06-11T10:48:39.630Z,13.53
2018-06-11T10:51:07.746Z,11.70
2018-06-11T10:53:35.836Z,13.37
2018-06-11T10:56:04.244Z,14.70
2018-06-11T10:58:32.419Z,14.67
2018-06-11T11:01:00.559Z,18.83
2018-06-11T11:03:28.792Z,14.77
2018-06-11T11:05:57.009Z,24.23
2018-06-11T11:08:25.145Z,12.73
2018-06-11T11:10:53.238Z,14.97
2018-06-11T11:13:21.403Z,15.30
2018-06-11T11:15:49.636Z,13.27
2018-06-11T11:18:17.813Z,12.20
2018-06-11T11:20:45.958Z,13.23
2018-06-11T11:23:14.056Z,16.53
2018-06-11T11:25:42.227Z,14.63
2018-06-11T11:28:10.423Z,13.23
2018-06-11T11:30:38.538Z,12.40
2018-06-11T11:33:06.701Z,12.40
2018-06-11T11:35:35.812Z,15.43
2018-06-11T11:38:03.990Z,13.10
2018-06-11T11:40:32.148Z,20.03
2018-06-11T11:43:00.710Z,13.83
2018-06-11T11:45:28.875Z,11.40
2018-06-11T11:47:57.043Z,19.70
2018-06-11T11:50:25.119Z,18.70
2018-06-11T11:52:53.239Z,15.33
2018-06-11T11:55:21.413Z,16.13
2018-06-11T11:57:49.618Z,14.10
2018-06-11T12:00:17.796Z,18.57
2018-06-11T12:02:45.915Z,13.80
2018-06-11T12:05:14.080Z,14.27
2018-06-11T12:07:42.379Z,14.03
2018-06-11T12:10:10.488Z,14.23
2018-06-11T12:12:38.659Z,15.77
2018-06-11T12:15:07.658Z,16.93
2018-06-11T12:17:35.862Z,14.77
2018-06-11T12:20:04.005Z,14.83
2018-06-11T12:22:32.132Z,16.70
2018-06-11T12:25:00.295Z,13.83
2018-06-11T12:27:28.461Z,15.33
2018-06-11T12:29:56.663Z,14.97
2018-06-11T12:32:24.891Z,15.77
2018-06-11T12:34:53.001Z,14.40
2018-06-11T12:37:21.241Z,12.90
2018-06-11T12:39:49.374Z,13.60
2018-06-11T12:42:17.551Z,15.63
2018-06-11T12:44:45.687Z,20.30
2018-06-11T12:47:13.855Z,13.77
2018-06-11T12:49:41.944Z,13.80
2018-06-11T12:52:10.099Z,15.63
2018-06-11T12:54:38.211Z,16.37
2018-06-11T12:57:06.499Z,14.30
2018-06-11T12:59:34.656Z,12.80
2018-06-11T13:02:02.807Z,15.70
2018-06-11T13:04:30.940Z,14.17
2018-06-11T13:06:59.107Z,19.17
2018-06-11T13:09:27.213Z,16.77
2018-06-11T13:11:55.396Z,16.43
2018-06-11T13:14:23.543Z,16.67
2018-06-11T13:16:51.695Z,17.00
2018-06-11T13:19:19.856Z,15.57
2018-06-11T13:21:47.974Z,11.80
2018-06-11T13:24:16.095Z,11.43
2018-06-11T13:26:44.215Z,11.40
2018-06-11T13:29:12.354Z,11.47
2018-06-11T13:31:40.462Z,12.03
2018-06-11T13:34:08.590Z,12.33
2018-06-11T13:36:36.820Z,13.67
2018-06-11T13:39:07.985Z,10.77
2018-06-11T13:41:36.285Z,18.73
2018-06-11T13:44:04.564Z,15.33
2018-06-11T13:46:32.718Z,15.27
2018-06-11T13:49:00.911Z,14.80
2018-06-11T13:51:29.070Z,10.80
2018-06-11T13:53:57.292Z,15.73
2018-06-11T13:56:25.464Z,14.70
2018-06-11T13:58:53.571Z,12.97
2018-06-11T14:01:21.708Z,15.43
2018-06-11T14:03:49.848Z,12.70
2018-06-11T14:06:18.063Z,11.93
2018-06-11T14:08:46.169Z,15.67
2018-06-11T14:11:14.299Z,14.63
2018-06-11T14:13:42.514Z,11.83
2018-06-11T14:16:10.699Z,14.33
2018-06-11T14:18:38.862Z,10.00
2018-06-11T14:21:07.122Z,14.23
2018-06-11T14:23:35.307Z,11.90
2018-06-11T14:26:03.475Z,13.60
2018-06-11T14:28:31.664Z,13.17
2018-06-11T14:30:59.808Z,13.90
2018-06-11T14:33:27.916Z,11.87
2018-06-11T14:35:56.064Z,12.33
2018-06-11T14:38:24.264Z,11.80
2018-06-11T14:40:52.355Z,9.27
2018-06-11T14:43:20.487Z,15.43
2018-06-11T14:45:48.650Z,10.40
2018-06-11T14:48:16.775Z,10.33
2018-06-11T14:50:44.916Z,16.10
2018-06-11T14:53:13.079Z,8.77
2018-06-11T14:55:41.270Z,10.50
2018-06-11T14:58:09.848Z,12.57
2018-06-11T15:00:37.970Z,11.17
2018-06-11T15:03:06.168Z,8.87
2018-06-11T15:05:34.328Z,10.67
2018-06-11T15:08:02.534Z,14.00
2018-06-11T15:10:30.647Z,11.07
2018-06-11T15:12:58.787Z,17.73
2018-06-11T15:15:26.937Z,13.97
2018-06-11T15:17:54.999Z,14.70
2018-06-11T15:20:23.101Z,15.40
2018-06-11T15:22:51.260Z,12.20
2018-06-11T15:25:19.331Z,14.33
2018-06-11T15:27:47.481Z,17.00
2018-06-11T15:30:15.636Z,13.87
2018-06-11T15:32:43.744Z,19.03
2018-06-11T15:35:11.797Z,17.37
2018-06-11T15:37:39.861Z,16.83
2018-06-11T15:40:08.004Z,18.97
2018-06-11T15:42:36.182Z,12.13
2018-06-11T15:45:04.363Z,14.27
2018-06-11T15:47:32.528Z,15.40
2018-06-11T15:50:00.678Z,12.07
2018-06-11T15:52:28.891Z,9.23
2018-06-11T15:54:57.015Z,13.70
2018-06-11T15:57:25.210Z,10.57
2018-06-11T15:59:53.397Z,13.47
2018-06-11T16:02:21.687Z,10.60
2018-06-11T16:04:49.896Z,8.43
2018-06-11T16:07:18.108Z,11.77
2018-06-11T16:09:46.295Z,17.13
2018-06-11T16:12:14.478Z,12.80
2018-06-11T16:14:42.591Z,12.83
2018-06-11T16:17:10.782Z,14.03
2018-06-11T16:19:38.906Z,9.73
2018-06-11T16:22:07.024Z,11.30
2018-06-11T16:24:35.183Z,12.40
2018-06-11T16:27:03.385Z,11.20
2018-06-11T16:29:31.528Z,10.13
2018-06-11T16:31:59.807Z,10.10
2018-06-11T16:34:28.042Z,15.37
2018-06-11T16:36:56.238Z,9.40
2018-06-11T16:39:24.490Z,10.77
2018-06-11T16:41:52.703Z,9.27
2018-06-11T16:44:20.919Z,25.47
2018-06-11T16:46:49.093Z,9.80
2018-06-11T16:49:17.349Z,14.30
2018-06-11T16:51:45.604Z,13.83
2018-06-11T16:54:13.769Z,6.33
2018-06-11T16:56:42.081Z,10.23
2018-06-11T16:59:11.957Z,8.13
2018-06-11T17:01:40.176Z,10.67
2018-06-11T17:04:08.412Z,9.73
2018-06-11T17:06:36.648Z,10.17
2018-06-11T17:09:07.547Z,6.60
2018-06-11T17:11:36.685Z,3.53
2018-06-11T17:14:04.966Z,8.73
2018-06-11T17:16:33.165Z,5.57
2018-06-11T17:19:01.408Z,7.23
2018-06-11T17:21:29.569Z,10.43
2018-06-11T17:23:57.864Z,10.07
2018-06-11T17:26:26.169Z,6.33
2018-06-11T17:28:54.409Z,9.30
2018-06-11T17:31:22.645Z,5.37
2018-06-11T17:33:50.871Z,8.20
2018-06-11T17:36:19.110Z,4.07
2018-06-11T17:38:47.292Z,8.20
2018-06-11T17:41:15.476Z,6.57
2018-06-11T17:43:43.774Z,6.60
2018-06-11T17:46:12.044Z,4.80
2018-06-11T17:48:40.407Z,8.83
2018-06-11T17:51:08.736Z,6.00
2018-06-11T17:53:36.949Z,8.43
2018-06-11T17:56:05.249Z,8.83
2018-06-11T17:58:33.654Z,8.50
2018-06-11T18:01:01.843Z,11.20
2018-06-11T18:03:30.131Z,9.10
2018-06-11T18:05:58.396Z,4.23
2018-06-11T18:08:26.759Z,9.20
2018-06-11T18:10:55.018Z,5.97
2018-06-11T18:13:23.168Z,6.03
2018-06-11T18:15:51.426Z,5.50
2018-06-11T18:18:19.619Z,7.23
2018-06-11T18:20:47.896Z,5.27
2018-06-11T18:23:16.107Z,13.13
2018-06-11T18:25:44.384Z,5.90
2018-06-11T18:28:12.660Z,6.43
2018-06-11T18:30:40.893Z,3.80
2018-06-11T18:33:09.163Z,7.20
2018-06-11T18:35:37.455Z,10.60
2018-06-11T18:38:05.743Z,9.50
2018-06-11T18:40:34.957Z,10.80
2018-06-11T18:43:03.540Z,4.70
2018-06-11T18:45:31.824Z,7.07
2018-06-11T18:48:00.037Z,5.00
2018-06-11T18:50:28.373Z,4.93
2018-06-11T18:52:56.623Z,5.90
2018-06-11T18:55:24.956Z,5.90
2018-06-11T18:57:53.257Z,3.37
2018-06-11T19:00:21.592Z,4.47
2018-06-11T19:02:49.854Z,5.30
2018-06-11T19:05:18.174Z,8.13
2018-06-11T19:07:46.500Z,4.10
2018-06-11T19:10:14.847Z,4.40
2018-06-11T19:12:43.096Z,11.20
2018-06-11T19:15:11.440Z,10.83
2018-06-11T19:17:39.718Z,4.87
2018-06-11T19:20:08.036Z,6.60
2018-06-11T19:22:36.379Z,4.83
2018-06-11T19:25:04.604Z,5.30
2018-06-11T19:27:32.899Z,3.10
2018-06-11T19:30:01.186Z,3.30
2018-06-11T19:32:29.448Z,8.17
2018-06-11T19:34:57.759Z,5.43
2018-06-11T19:37:26.041Z,2.97
2018-06-11T19:39:54.311Z,6.50
2018-06-11T19:42:22.797Z,5.30
2018-06-11T19:44:51.008Z,7.83
2018-06-11T19:47:19.289Z,4.13
2018-06-11T19:49:47.556Z,5.30
2018-06-11T19:52:15.821Z,4.70
2018-06-11T19:54:44.085Z,4.90
2018-06-11T19:57:12.332Z,4.60
2018-06-11T19:59:40.598Z,4.10
2018-06-11T20:02:09.190Z,4.53
2018-06-11T20:04:37.409Z,2.70
2018-06-11T20:07:05.631Z,4.47
2018-06-11T20:09:34.045Z,3.27
2018-06-11T20:12:02.317Z,3.37
2018-06-11T20:14:30.598Z,10.63
2018-06-11T20:16:58.749Z,3.40
2018-06-11T20:19:27.014Z,3.37
2018-06-11T20:21:55.351Z,4.30
2018-06-11T20:24:23.562Z,12.13
2018-06-11T20:26:51.891Z,4.80
2018-06-11T20:29:20.177Z,5.80
2018-06-11T20:31:48.388Z,3.60
2018-06-11T20:34:16.643Z,8.03
2018-06-11T20:36:45.002Z,3.67
2018-06-11T20:39:13.216Z,2.67
2018-06-11T20:41:41.604Z,5.20
2018-06-11T20:44:09.903Z,4.23
2018-06-11T20:46:38.106Z,3.77
2018-06-11T20:49:06.406Z,5.03
2018-06-11T20:51:35.494Z,6.77
2018-06-11T20:54:03.773Z,4.30
2018-06-11T20:56:32.167Z,5.50
2018-06-11T20:59:00.379Z,13.60
2018-06-11T21:01:28.804Z,5.60
2018-06-11T21:03:57.130Z,6.33
2018-06-11T21:06:25.313Z,4.27
2018-06-11T21:08:53.624Z,6.10
2018-06-11T21:11:22.003Z,6.40
2018-06-11T21:13:50.225Z,4.30
2018-06-11T21:16:18.572Z,6.73
2018-06-11T21:18:46.770Z,5.47
2018-06-11T21:21:14.969Z,5.57
2018-06-11T21:23:43.210Z,8.93
2018-06-11T21:26:11.344Z,5.60
2018-06-11T21:28:39.531Z,6.33
2018-06-11T21:31:07.770Z,5.63
2018-06-11T21:33:36.005Z,4.77
2018-06-11T21:36:04.363Z,9.50
2018-06-11T21:38:32.695Z,5.43
2018-06-11T21:41:00.928Z,5.60
2018-06-11T21:43:29.089Z,6.00
2018-06-11T21:45:57.260Z,9.30
2018-06-11T21:48:25.492Z,6.07
2018-06-11T21:50:53.734Z,5.30
2018-06-11T21:53:21.952Z,7.40
2018-06-11T21:55:50.179Z,4.43
2018-06-11T21:58:18.378Z,6.50
2018-06-11T22:00:46.589Z,6.40
2018-06-11T22:03:14.723Z,4.50
2018-06-11T22:05:42.950Z,6.40
2018-06-11T22:08:11.660Z,5.00
2018-06-11T22:10:39.926Z,5.60
2018-06-11T22:13:08.188Z,7.53
2018-06-11T22:15:36.416Z,7.73
2018-06-11T22:18:05.541Z,6.00
2018-06-11T22:20:33.730Z,7.93
2018-06-11T22:23:01.926Z,5.07
2018-06-11T22:25:30.141Z,6.60
2018-06-11T22:27:58.331Z,11.40
2018-06-11T22:30:26.532Z,9.40
2018-06-11T22:32:54.722Z,4.60
2018-06-11T22:35:22.846Z,7.97
2018-06-11T22:37:50.972Z,6.67
2018-06-11T22:40:19.143Z,6.73
2018-06-11T22:42:47.268Z,13.27
2018-06-11T22:45:15.456Z,6.93
2018-06-11T22:47:43.638Z,7.47
2018-06-11T22:50:11.788Z,5.60
2018-06-11T22:52:40.013Z,13.03
2018-06-11T22:55:08.188Z,7.57
2018-06-11T22:57:36.342Z,8.70
2018-06-11T23:00:04.600Z,5.57
2018-06-11T23:02:32.700Z,6.70
2018-06-11T23:05:00.848Z,13.00
2018-06-11T23:07:29.045Z,6.40
2018-06-11T23:09:57.197Z,6.70
2018-06-11T23:12:25.364Z,10.07
2018-06-11T23:14:53.555Z,5.77
2018-06-11T23:17:21.785Z,7.40
2018-06-11T23:19:49.906Z,6.73
2018-06-11T23:22:18.164Z,6.40
2018-06-11T23:24:46.342Z,7.07
2018-06-11T23:27:14.491Z,5.90
2018-06-11T23:29:42.668Z,6.73
2018-06-11T23:32:10.775Z,9.07
2018-06-11T23:34:38.895Z,9.80
2018-06-11T23:37:07.059Z,7.40
2018-06-11T23:39:35.180Z,9.00
2018-06-11T23:42:03.485Z,7.23
2018-06-11T23:44:31.617Z,9.10
2018-06-11T23:46:59.756Z,9.20
2018-06-11T23:49:27.863Z,9.93
2018-06-11T23:51:56.024Z,9.93
2018-06-11T23:54:24.280Z,6.50
2018-06-11T23:56:52.544Z,10.00
2018-06-11T23:59:20.710Z,10.77
